KJFK/JFK METAR and TAF weather

Enter ICAO airport designator
Station Type Date Time Source
KJFK METAR 2022/12/04 04:51 UTC NOAA

KJFK 040451Z 29016KT 10SM SCT050 08/M02 A3014 RMK AO2 PK WND 30026/0354 SLP204 T00781022 401390067 $


Station Type Date Time Source
KJFK Decoded METAR 2022/12/04 04:51 UTC NOAA

KENNEDY INTERNATIONAL AIRPORT , NY, United States (KJFK) 40-38N 073-46W 9M
Dec 03, 2022 - 11:51 PM EST / 2022.12.04 0451 UTC
Wind: from the WNW (290 degrees) at 18 MPH (16 KT):0
Visibility: 10 mile(s):0
Sky conditions: partly cloudy
Temperature: 46.0 F (7.8 C)
Dew Point: 28.0 F (-2.2 C)
Relative Humidity: 49%
Pressure (altimeter): 30.14 in. Hg (1020 hPa)
ob: KJFK 040451Z 29016KT 10SM SCT050 08/M02 A3014 RMK AO2 PK WND 30026/0354 SLP204 T00781022 401390067
cycle: 5

Station Type Date Time Source
KJFK TAF 2022/12/04 03:51 UTC NOAA

TAF
AMD KJFK 040242Z 0403/0506 29017G27KT P6SM FEW045 FEW250
FM040500 31015G24KT P6SM SKC
FM041200 32010KT P6SM FEW035
FM042100 28010KT P6SM FEW035
FM050100 25005KT P6SM SKC

Example: see airport list